createdAt,value
2018-02-17T02:39:13.937Z,0
2018-02-17T05:59:55.819Z,3
2018-02-17T06:05:56.112Z,7
2018-02-17T06:08:56.347Z,10
2018-02-17T06:11:26.484Z,13
2018-02-17T06:12:56.602Z,17
2018-02-17T06:13:56.607Z,20
2018-02-17T06:14:56.651Z,23
2018-02-17T06:15:56.789Z,27
2018-02-17T06:16:26.740Z,30
2018-02-17T06:17:27.452Z,33
2018-02-17T06:17:56.840Z,37
2018-02-17T06:18:56.906Z,40
2018-02-17T06:19:26.947Z,43
2018-02-17T06:19:56.953Z,47
2018-02-17T06:20:26.977Z,50
2018-02-17T06:21:27.116Z,53
2018-02-17T06:21:57.088Z,57
2018-02-17T06:22:57.143Z,60
2018-02-17T06:23:27.165Z,63
2018-02-17T06:23:57.278Z,67
2018-02-17T06:24:57.295Z,70
2018-02-17T06:25:27.307Z,73
2018-02-17T06:25:57.380Z,77
2018-02-17T06:26:27.450Z,80
2018-02-17T06:26:57.412Z,83
2018-02-17T06:27:27.456Z,87
2018-02-17T06:27:57.488Z,90
2018-02-17T06:28:27.553Z,93
2018-02-17T06:28:57.529Z,100
2018-02-17T06:29:27.573Z,103
2018-02-17T06:29:57.587Z,107
2018-02-17T06:30:27.661Z,110
2018-02-17T06:30:57.686Z,117
2018-02-17T06:31:27.736Z,120
2018-02-17T06:31:57.741Z,127
2018-02-17T06:32:27.787Z,130
2018-02-17T06:32:57.773Z,137
2018-02-17T06:33:27.792Z,143
2018-02-17T06:33:57.889Z,150
2018-02-17T06:34:27.883Z,157
2018-02-17T06:34:57.914Z,163
2018-02-17T06:35:27.939Z,170
2018-02-17T06:35:58.004Z,177
2018-02-17T06:36:28.010Z,187
2018-02-17T06:36:58.029Z,193
2018-02-17T06:37:28.085Z,200
2018-02-17T06:37:58.115Z,210
2018-02-17T06:38:28.150Z,213
2018-02-17T06:38:58.193Z,223
2018-02-17T06:39:28.217Z,230
2018-02-17T06:39:58.242Z,240
2018-02-17T06:40:28.240Z,250
2018-02-17T06:40:58.261Z,260
2018-02-17T06:41:28.317Z,270
2018-02-17T06:41:58.315Z,280
2018-02-17T06:42:28.392Z,290
2018-02-17T06:42:58.370Z,300
2018-02-17T06:43:28.456Z,310
2018-02-17T06:43:58.465Z,317
2018-02-17T06:44:28.518Z,327
2018-02-17T06:44:58.528Z,333
2018-02-17T06:45:28.555Z,343
2018-02-17T06:45:58.785Z,350
2018-02-17T06:46:28.594Z,357
2018-02-17T06:46:58.617Z,367
2018-02-17T06:47:28.674Z,373
2018-02-17T06:47:58.675Z,380
2018-02-17T06:48:28.724Z,387
2018-02-17T06:48:58.718Z,397
2018-02-17T06:49:28.784Z,403
2018-02-17T06:49:58.827Z,413
2018-02-17T06:50:28.870Z,423
2018-02-17T06:50:58.875Z,430
2018-02-17T06:51:28.893Z,440
2018-02-17T06:51:59.416Z,450
2018-02-17T06:52:28.935Z,463
2018-02-17T06:52:58.975Z,473
2018-02-17T06:53:29.031Z,487
2018-02-17T06:53:59.295Z,497
2018-02-17T06:54:29.085Z,507
2018-02-17T06:54:59.154Z,517
2018-02-17T06:55:29.124Z,530
2018-02-17T06:55:59.160Z,540
2018-02-17T06:56:29.215Z,547
2018-02-17T06:56:59.296Z,560
2018-02-17T06:57:29.318Z,570
2018-02-17T06:57:59.318Z,580
2018-02-17T06:58:29.316Z,590
2018-02-17T06:58:59.378Z,600
2018-02-17T06:59:29.375Z,613
2018-02-17T06:59:59.474Z,627
2018-02-17T07:00:29.469Z,640
2018-02-17T07:00:59.486Z,650
2018-02-17T07:01:29.529Z,663
2018-02-17T07:01:59.565Z,677
2018-02-17T07:02:29.606Z,690
2018-02-17T07:02:59.606Z,707
2018-02-17T07:03:29.618Z,720
2018-02-17T07:03:59.692Z,733
2018-02-17T07:04:29.691Z,750
2018-02-17T07:04:59.709Z,767
2018-02-17T07:05:29.758Z,790
2018-02-17T07:05:59.772Z,813
2018-02-17T07:06:29.802Z,837
2018-02-17T07:06:59.851Z,860
2018-02-17T07:07:29.873Z,887
2018-02-17T07:07:59.906Z,903
2018-02-17T07:08:29.922Z,927
2018-02-17T07:08:59.965Z,947
2018-02-17T07:09:29.992Z,967
2018-02-17T07:10:00.099Z,993
2018-02-17T07:10:30.073Z,1013
2018-02-17T07:11:00.068Z,1033
2018-02-17T07:11:30.121Z,1057
2018-02-17T07:12:00.160Z,1073
2018-02-17T07:12:30.217Z,1093
2018-02-17T07:13:00.924Z,1107
2018-02-17T07:13:30.227Z,1123
2018-02-17T07:14:00.656Z,1137
2018-02-17T07:14:30.338Z,1153
2018-02-17T07:15:00.826Z,1173
2018-02-17T07:15:30.400Z,1197
2018-02-17T07:16:00.644Z,1220
2018-02-17T07:16:30.419Z,1243
2018-02-17T07:17:00.841Z,1267
2018-02-17T07:17:30.553Z,1290
2018-02-17T07:18:00.762Z,1313
2018-02-17T07:18:30.565Z,1343
2018-02-17T07:19:00.943Z,1377
2018-02-17T07:19:30.625Z,1417
2018-02-17T07:20:00.984Z,1460
2018-02-17T07:20:30.661Z,1500
2018-02-17T07:21:00.721Z,1540
2018-02-17T07:21:30.749Z,1573
2018-02-17T07:22:01.008Z,1597
2018-02-17T07:22:30.807Z,1607
2018-02-17T07:23:00.917Z,1610
2018-02-17T07:23:30.912Z,1607
2018-02-17T07:24:00.871Z,1600
2018-02-17T07:24:30.911Z,1593
2018-02-17T07:25:00.930Z,1583
2018-02-17T07:25:31.029Z,1580
2018-02-17T07:26:01.007Z,1583
2018-02-17T07:26:31.070Z,1597
2018-02-17T07:27:01.107Z,1610
2018-02-17T07:27:31.136Z,1617
2018-02-17T07:28:01.165Z,1637
2018-02-17T07:28:31.210Z,1667
2018-02-17T07:29:01.219Z,1693
2018-02-17T07:29:31.291Z,1717
2018-02-17T07:30:01.254Z,1743
2018-02-17T07:30:31.324Z,1767
2018-02-17T07:31:01.335Z,1787
2018-02-17T07:31:31.408Z,1813
2018-02-17T07:32:01.490Z,1843
2018-02-17T07:32:31.439Z,1880
2018-02-17T07:33:01.454Z,1920
2018-02-17T07:33:31.469Z,1963
2018-02-17T07:34:01.549Z,2010
2018-02-17T07:34:31.543Z,2063
2018-02-17T07:35:01.565Z,2120
2018-02-17T07:35:31.606Z,2173
2018-02-17T07:36:01.623Z,2230
2018-02-17T07:36:31.662Z,2310
2018-02-17T07:37:01.673Z,2407
2018-02-17T07:37:31.753Z,2480
2018-02-17T07:38:01.754Z,2517
2018-02-17T07:38:31.801Z,2560
2018-02-17T07:39:01.832Z,2620
2018-02-17T07:39:31.867Z,2680
2018-02-17T07:40:01.908Z,2700
2018-02-17T07:40:31.887Z,2710
2018-02-17T07:41:02.018Z,2820
2018-02-17T07:41:31.957Z,2873
2018-02-17T07:42:01.992Z,2953
2018-02-17T07:42:32.009Z,2987
2018-02-17T07:43:02.075Z,2970
2018-02-17T07:43:32.079Z,2987
2018-02-17T07:44:02.124Z,3017
2018-02-17T07:44:32.183Z,2950
2018-02-17T07:45:02.179Z,2923
2018-02-17T07:45:32.199Z,2970
2018-02-17T07:46:02.258Z,2987
2018-02-17T07:46:32.277Z,3013
2018-02-17T07:47:02.365Z,3040
2018-02-17T07:47:32.357Z,3100
2018-02-17T07:48:02.373Z,3193
2018-02-17T07:48:32.435Z,3280
2018-02-17T07:49:02.474Z,3333
2018-02-17T07:49:32.454Z,3510
2018-02-17T07:50:02.485Z,3473
2018-02-17T07:50:32.573Z,3477
2018-02-17T07:51:02.538Z,3587
2018-02-17T07:51:32.690Z,3603
2018-02-17T07:52:02.671Z,3553
2018-02-17T07:52:32.686Z,3613
2018-02-17T07:53:02.685Z,3697
2018-02-17T07:53:32.711Z,3833
2018-02-17T07:54:02.738Z,3873
2018-02-17T07:54:32.782Z,3940
2018-02-17T07:55:02.794Z,3977
2018-02-17T07:55:32.817Z,3927
2018-02-17T07:56:02.878Z,3870
2018-02-17T07:56:32.888Z,3887
2018-02-17T07:57:02.908Z,3813
2018-02-17T07:57:32.945Z,3767
2018-02-17T07:58:02.971Z,3780
2018-02-17T07:59:03.045Z,3790
2018-02-17T07:59:33.154Z,3800
2018-02-17T08:00:03.095Z,3860
2018-02-17T08:00:33.118Z,3930
2018-02-17T08:01:03.180Z,4007
2018-02-17T08:01:33.183Z,3993
2018-02-17T08:02:03.272Z,4013
2018-02-17T08:02:33.317Z,4020
2018-02-17T08:03:03.267Z,4050
2018-02-17T08:03:33.355Z,4103
2018-02-17T08:04:03.383Z,4120
2018-02-17T08:05:03.418Z,4160
2018-02-17T08:05:33.476Z,4273
2018-02-17T08:06:03.519Z,4400
2018-02-17T08:06:33.512Z,4477
2018-02-17T08:07:03.561Z,4410
2018-02-17T08:07:33.612Z,4313
2018-02-17T08:08:03.623Z,4350
2018-02-17T08:08:33.691Z,4413
2018-02-17T08:09:03.688Z,4660
2018-02-17T08:09:33.707Z,4317
2018-02-17T08:10:04.010Z,4703
2018-02-17T08:10:33.786Z,5003
2018-02-17T08:11:03.823Z,4920
2018-02-17T08:11:33.877Z,4883
2018-02-17T08:12:03.879Z,4830
2018-02-17T08:12:33.896Z,4927
2018-02-17T08:13:03.951Z,4933
2018-02-17T08:13:33.978Z,4770
2018-02-17T08:14:03.974Z,4730
2018-02-17T08:14:34.000Z,4697
2018-02-17T08:15:04.093Z,4667
2018-02-17T08:15:34.120Z,4693
2018-02-17T08:16:04.145Z,4793
2018-02-17T08:16:34.115Z,4860
2018-02-17T08:17:04.224Z,5017
2018-02-17T08:17:34.200Z,5003
2018-02-17T08:18:04.250Z,5007
2018-02-17T08:18:34.288Z,4913
2018-02-17T08:19:04.354Z,4880
2018-02-17T08:19:34.295Z,4910
2018-02-17T08:20:04.382Z,4987
2018-02-17T08:20:34.356Z,5103
2018-02-17T08:21:04.446Z,5083
2018-02-17T08:21:34.561Z,5113
2018-02-17T08:22:04.480Z,5137
2018-02-17T08:22:34.499Z,5163
2018-02-17T08:23:04.575Z,5217
2018-02-17T08:23:34.550Z,5200
2018-02-17T08:24:04.561Z,5150
2018-02-17T08:24:34.658Z,5067
2018-02-17T08:25:04.668Z,5093
2018-02-17T08:25:34.679Z,5133
2018-02-17T08:26:04.703Z,5150
2018-02-17T08:26:34.734Z,5107
2018-02-17T08:27:04.762Z,5067
2018-02-17T08:27:34.804Z,5120
2018-02-17T08:28:04.835Z,5153
2018-02-17T08:28:34.932Z,5067
2018-02-17T08:29:04.898Z,5153
2018-02-17T08:29:34.918Z,5110
2018-02-17T08:30:04.954Z,5130
2018-02-17T08:30:34.971Z,5067
2018-02-17T08:31:05.006Z,5003
2018-02-17T08:31:35.035Z,4977
2018-02-17T08:32:05.095Z,4970
2018-02-17T08:32:35.090Z,5020
2018-02-17T08:33:05.134Z,5097
2018-02-17T08:33:35.226Z,5050
2018-02-17T08:34:05.197Z,4957
2018-02-17T08:34:35.259Z,4880
2018-02-17T08:35:05.299Z,4890
2018-02-17T08:35:35.290Z,4983
2018-02-17T08:36:05.310Z,4987
2018-02-17T08:36:35.412Z,5000
2018-02-17T08:37:05.467Z,5050
2018-02-17T08:37:35.477Z,5110
2018-02-17T08:38:05.479Z,5187
2018-02-17T08:38:35.506Z,5240
2018-02-17T08:39:05.533Z,5267
2018-02-17T08:39:35.545Z,5340
2018-02-17T08:40:05.657Z,5380
2018-02-17T08:40:35.601Z,5210
2018-02-17T08:41:05.666Z,5333
2018-02-17T08:41:35.705Z,5393
2018-02-17T08:42:05.702Z,5483
2018-02-17T08:42:35.750Z,5567
2018-02-17T08:43:05.755Z,5657
2018-02-17T08:43:35.776Z,5660
2018-02-17T08:44:05.835Z,5680
2018-02-17T08:44:35.846Z,5583
2018-02-17T08:45:05.922Z,5497
2018-02-17T08:45:35.893Z,5487
2018-02-17T08:46:05.923Z,5490
2018-02-17T08:46:35.962Z,5497
2018-02-17T08:47:06.065Z,5527
2018-02-17T08:47:36.052Z,5557
2018-02-17T08:48:06.071Z,5537
2018-02-17T08:48:36.083Z,5493
2018-02-17T08:49:06.117Z,5400
2018-02-17T08:49:36.188Z,5443
2018-02-17T08:50:06.241Z,5463
2018-02-17T08:50:36.244Z,5473
2018-02-17T08:51:06.231Z,5400
2018-02-17T08:51:36.329Z,5530
2018-02-17T08:52:06.344Z,5587
2018-02-17T08:52:36.329Z,5517
2018-02-17T08:53:06.366Z,5527
2018-02-17T08:53:36.474Z,5543
2018-02-17T08:54:06.486Z,5573
2018-02-17T08:54:36.481Z,5580
2018-02-17T08:55:06.574Z,5630
2018-02-17T08:55:36.568Z,5673
2018-02-17T08:56:06.577Z,5767
2018-02-17T08:56:36.634Z,5950
2018-02-17T08:57:06.664Z,5973
2018-02-17T08:57:36.633Z,6040
2018-02-17T08:58:06.754Z,6097
2018-02-17T08:58:36.737Z,6257
2018-02-17T08:59:06.748Z,6347
2018-02-17T08:59:36.816Z,6433
2018-02-17T09:00:06.845Z,6503
2018-02-17T09:00:36.852Z,6393
2018-02-17T09:01:06.903Z,6363
2018-02-17T09:01:36.920Z,6323
2018-02-17T09:02:06.970Z,6463
2018-02-17T09:02:37.058Z,6417
2018-02-17T09:03:06.975Z,6477
2018-02-17T09:03:37.074Z,6593
2018-02-17T09:04:07.091Z,6680
2018-02-17T09:04:37.146Z,6620
2018-02-17T09:05:07.176Z,6583
2018-02-17T09:05:37.154Z,6517
2018-02-17T09:06:07.152Z,6540
2018-02-17T09:06:37.194Z,6493
2018-02-17T09:07:07.262Z,6400
2018-02-17T09:07:37.243Z,6300
2018-02-17T09:08:07.331Z,6267
2018-02-17T09:08:37.377Z,6247
2018-02-17T09:09:07.393Z,6230
2018-02-17T09:09:37.436Z,6240
2018-02-17T09:10:07.470Z,6270
2018-02-17T09:10:37.526Z,6330
2018-02-17T09:11:07.503Z,6407
2018-02-17T09:11:37.533Z,6480
2018-02-17T09:12:07.561Z,6573
2018-02-17T09:12:37.577Z,6613
2018-02-17T09:13:07.593Z,6637
2018-02-17T09:13:37.621Z,6723
2018-02-17T09:14:07.705Z,6777
2018-02-17T09:14:37.701Z,6847
2018-02-17T09:15:07.775Z,6833
2018-02-17T09:15:37.748Z,7030
2018-02-17T09:16:07.763Z,7130
2018-02-17T09:16:37.799Z,7293
2018-02-17T09:17:07.820Z,7377
2018-02-17T09:17:37.857Z,7383
2018-02-17T09:18:07.890Z,7517
2018-02-17T09:18:37.928Z,7703
2018-02-17T09:19:07.950Z,7867
2018-02-17T09:19:38.010Z,8177
2018-02-17T09:20:08.058Z,8477
2018-02-17T09:20:38.071Z,8550
2018-02-17T09:21:08.153Z,8410
2018-02-17T09:21:38.124Z,8347
2018-02-17T09:22:08.189Z,8317
2018-02-17T09:22:38.216Z,8410
2018-02-17T09:23:08.253Z,8343
2018-02-17T09:23:38.312Z,8200
2018-02-17T09:24:08.280Z,8060
2018-02-17T09:24:38.299Z,8117
2018-02-17T09:25:08.636Z,8070
2018-02-17T09:25:38.405Z,8090
2018-02-17T09:26:08.390Z,8117
2018-02-17T09:26:38.456Z,8107
2018-02-17T09:27:08.521Z,8113
2018-02-17T09:27:38.507Z,8107
2018-02-17T09:28:08.513Z,8100
2018-02-17T09:28:38.574Z,8077
2018-02-17T09:29:38.624Z,8143
2018-02-17T09:30:08.743Z,8147
2018-02-17T09:30:38.682Z,8070
2018-02-17T09:31:08.695Z,8037
2018-02-17T09:31:38.748Z,8060
2018-02-17T09:32:08.764Z,8027
2018-02-17T09:32:38.790Z,8060
2018-02-17T09:33:08.817Z,8020
2018-02-17T09:33:38.837Z,7923
2018-02-17T09:34:08.910Z,7967
2018-02-17T09:34:38.960Z,7883
2018-02-17T09:35:08.945Z,7860
2018-02-17T09:35:39.031Z,7813
2018-02-17T09:36:09.003Z,7783
2018-02-17T09:36:39.034Z,7690
2018-02-17T09:37:09.066Z,7687
2018-02-17T09:37:39.109Z,7653
2018-02-17T09:38:09.122Z,7573
2018-02-17T09:38:39.166Z,7517
2018-02-17T09:39:09.188Z,7473
2018-02-17T09:39:39.233Z,7437
2018-02-17T09:40:09.288Z,7420
2018-02-17T09:40:39.393Z,7370
2018-02-17T09:41:09.351Z,7350
2018-02-17T09:41:39.368Z,7423
2018-02-17T09:42:09.385Z,7413
2018-02-17T09:42:39.454Z,7497
2018-02-17T09:43:09.480Z,7447
2018-02-17T09:43:39.513Z,7553
2018-02-17T09:44:09.566Z,7550
2018-02-17T09:44:39.555Z,7510
2018-02-17T09:45:09.633Z,7780
2018-02-17T09:45:39.719Z,7830
2018-02-17T09:46:09.639Z,8030
2018-02-17T09:46:39.721Z,8150
2018-02-17T09:47:09.752Z,8207
2018-02-17T09:47:39.781Z,8237
2018-02-17T09:48:09.736Z,8163
2018-02-17T09:48:39.816Z,8287
2018-02-17T09:49:09.844Z,8340
2018-02-17T09:49:39.856Z,8280
2018-02-17T09:50:09.932Z,8283
2018-02-17T09:50:39.947Z,8307
2018-02-17T09:51:10.053Z,8323
2018-02-17T09:51:40.027Z,8373
2018-02-17T09:52:09.994Z,8540
2018-02-17T09:52:40.086Z,8450
2018-02-17T09:53:10.114Z,8330
2018-02-17T09:53:40.135Z,8533
2018-02-17T09:54:10.160Z,8547
2018-02-17T09:54:40.186Z,8533
2018-02-17T09:55:10.224Z,8523
2018-02-17T09:55:40.329Z,8647
2018-02-17T09:56:10.280Z,8773
2018-02-17T09:56:40.310Z,8737
2018-02-17T09:57:10.336Z,8643
2018-02-17T09:57:40.328Z,8650
2018-02-17T09:58:10.403Z,8497
2018-02-17T09:58:40.378Z,8430
2018-02-17T09:59:10.466Z,8303
2018-02-17T09:59:40.453Z,8260
2018-02-17T10:00:10.469Z,8153
2018-02-17T10:00:40.545Z,8057
2018-02-17T10:01:10.609Z,8080
2018-02-17T10:01:40.576Z,8083
2018-02-17T10:02:10.745Z,8163
2018-02-17T10:02:40.636Z,8277
2018-02-17T10:03:10.711Z,8353
2018-02-17T10:03:40.710Z,8373
2018-02-17T10:04:10.728Z,8383
2018-02-17T10:04:40.765Z,8390
2018-02-17T10:05:10.788Z,8480
2018-02-17T10:05:40.842Z,8390
2018-02-17T10:06:10.867Z,8303
2018-02-17T10:06:40.891Z,8183
2018-02-17T10:07:10.963Z,8243
2018-02-17T10:07:40.936Z,8297
2018-02-17T10:08:10.986Z,8290
2018-02-17T10:08:41.045Z,8353
2018-02-17T10:09:11.035Z,8313
2018-02-17T10:09:41.098Z,8390
2018-02-17T10:10:11.088Z,8470
2018-02-17T10:10:41.219Z,8533
2018-02-17T10:11:11.186Z,8617
2018-02-17T10:11:41.251Z,8630
2018-02-17T10:12:11.243Z,8720
2018-02-17T10:12:41.270Z,8740
2018-02-17T10:13:11.320Z,8703
2018-02-17T10:13:41.296Z,8657
2018-02-17T10:14:11.336Z,8760
2018-02-17T10:14:41.389Z,8847
2018-02-17T10:15:11.445Z,8883
2018-02-17T10:15:41.450Z,8940
2018-02-17T10:16:11.470Z,8960
2018-02-17T10:16:41.744Z,8933
2018-02-17T10:17:11.556Z,8823
2018-02-17T10:17:41.592Z,8830
2018-02-17T10:18:11.631Z,8897
2018-02-17T10:18:41.662Z,8907
2018-02-17T10:19:11.678Z,8930
2018-02-17T10:19:41.680Z,8950
2018-02-17T10:20:11.771Z,9037
2018-02-17T10:20:41.747Z,9103
2018-02-17T10:21:11.760Z,9070
2018-02-17T10:21:41.803Z,9040
2018-02-17T10:22:11.903Z,9127
2018-02-17T10:22:41.882Z,9170
2018-02-17T10:23:11.894Z,9233
2018-02-17T10:23:41.926Z,9293
2018-02-17T10:24:11.964Z,9397
2018-02-17T10:24:41.989Z,9540
2018-02-17T10:25:12.006Z,9593
2018-02-17T10:25:42.133Z,9650
2018-02-17T10:26:12.065Z,9723
2018-02-17T10:26:42.136Z,9857
2018-02-17T10:27:12.139Z,10027
2018-02-17T10:27:42.167Z,10117
2018-02-17T10:28:12.215Z,10223
2018-02-17T10:28:42.265Z,10347
2018-02-17T10:29:12.344Z,10460
2018-02-17T10:29:42.335Z,10470
2018-02-17T10:30:12.346Z,10537
2018-02-17T10:30:42.370Z,10590
2018-02-17T10:31:12.431Z,10513
2018-02-17T10:31:42.406Z,10500
2018-02-17T10:32:12.500Z,10510
2018-02-17T10:32:42.527Z,10483
2018-02-17T10:33:12.552Z,10607
2018-02-17T10:33:42.642Z,10787
2018-02-17T10:34:12.617Z,10953
2018-02-17T10:34:42.657Z,10833
2018-02-17T10:35:12.676Z,10747
2018-02-17T10:35:42.678Z,10640
2018-02-17T10:36:12.717Z,10750
2018-02-17T10:36:42.770Z,10777
2018-02-17T10:37:12.826Z,10727
2018-02-17T10:37:42.859Z,10713
2018-02-17T10:38:12.863Z,10717
2018-02-17T10:38:42.919Z,10567
2018-02-17T10:39:12.904Z,10520
2018-02-17T10:39:42.945Z,10537
2018-02-17T10:40:13.014Z,10653
2018-02-17T10:40:43.031Z,10817
2018-02-17T10:41:13.021Z,11063
2018-02-17T10:41:43.079Z,11257
2018-02-17T10:42:13.108Z,11263
2018-02-17T10:42:43.148Z,11120
2018-02-17T10:43:13.109Z,11253
2018-02-17T10:43:43.178Z,11553
2018-02-17T10:44:13.189Z,11740
2018-02-17T10:44:43.229Z,11680
2018-02-17T10:45:13.304Z,11700
2018-02-17T10:45:43.307Z,11830
2018-02-17T10:46:13.328Z,12050
2018-02-17T10:46:43.408Z,11973
2018-02-17T10:47:13.450Z,12180
2018-02-17T10:47:43.429Z,12240
2018-02-17T10:48:13.514Z,12420
2018-02-17T10:48:43.498Z,12717
2018-02-17T10:49:13.514Z,12423
2018-02-17T10:49:43.562Z,12477
2018-02-17T10:50:13.594Z,12650
2018-02-17T10:50:43.603Z,12513
2018-02-17T10:51:13.620Z,12390
2018-02-17T10:51:43.651Z,12197
2018-02-17T10:52:13.678Z,12093
2018-02-17T10:52:43.693Z,12167
2018-02-17T10:53:13.737Z,12237
2018-02-17T10:53:43.798Z,12153
2018-02-17T10:54:13.916Z,12343
2018-02-17T10:54:43.872Z,12340
2018-02-17T10:55:13.859Z,11830
2018-02-17T10:55:43.880Z,11580
2018-02-17T10:56:13.945Z,11367
2018-02-17T10:56:43.956Z,11307
2018-02-17T10:57:13.977Z,11520
2018-02-17T10:57:44.032Z,11543
2018-02-17T10:58:14.158Z,11833
2018-02-17T10:58:44.074Z,11967
2018-02-17T10:59:14.109Z,12147
2018-02-17T10:59:44.166Z,12377
2018-02-17T11:00:14.203Z,12517
2018-02-17T11:00:44.183Z,12743
2018-02-17T11:01:14.244Z,13043
2018-02-17T11:01:44.295Z,13150
2018-02-17T11:02:14.298Z,13283
2018-02-17T11:02:44.370Z,13093
2018-02-17T11:03:14.429Z,12933
2018-02-17T11:03:44.407Z,12943
2018-02-17T11:04:14.414Z,12827
2018-02-17T11:04:44.445Z,12837
2018-02-17T11:05:14.525Z,12897
2018-02-17T11:05:44.516Z,12713
2018-02-17T11:06:14.551Z,12587
2018-02-17T11:06:44.604Z,12773
2018-02-17T11:07:14.630Z,13107
2018-02-17T11:07:44.640Z,13097
2018-02-17T11:08:14.684Z,12793
2018-02-17T11:08:44.693Z,12350
2018-02-17T11:09:14.743Z,12293
2018-02-17T11:09:44.765Z,12243
2018-02-17T11:10:14.769Z,12127
2018-02-17T11:10:44.798Z,11710
2018-02-17T11:11:14.931Z,11863
2018-02-17T11:11:44.883Z,11840
2018-02-17T11:12:14.950Z,11877
2018-02-17T11:12:44.959Z,11913
2018-02-17T11:13:15.000Z,11997
2018-02-17T11:13:44.998Z,11673
2018-02-17T11:14:15.022Z,11437
2018-02-17T11:14:45.061Z,11580
2018-02-17T11:15:15.121Z,11507
2018-02-17T11:15:45.127Z,11557
2018-02-17T11:16:15.218Z,11520
2018-02-17T11:16:45.235Z,11343
2018-02-17T11:17:15.203Z,11593
2018-02-17T11:17:45.229Z,11557
2018-02-17T11:18:15.328Z,11610
2018-02-17T11:18:45.369Z,11183
2018-02-17T11:19:15.375Z,11167
2018-02-17T11:19:45.365Z,11440
2018-02-17T11:20:15.416Z,11567
2018-02-17T11:20:45.491Z,11753
2018-02-17T11:21:15.550Z,12197
2018-02-17T11:21:45.519Z,12477
2018-02-17T11:22:15.889Z,12733
2018-02-17T11:22:45.581Z,12633
2018-02-17T11:23:15.609Z,12257
2018-02-17T11:23:45.680Z,11957
2018-02-17T11:24:15.685Z,12430
2018-02-17T11:24:45.754Z,12530
2018-02-17T11:25:15.747Z,12640
2018-02-17T11:25:45.756Z,12707
2018-02-17T11:26:15.814Z,12633
2018-02-17T11:26:45.869Z,11567
2018-02-17T11:27:15.879Z,12207
2018-02-17T11:27:45.869Z,12547
2018-02-17T11:28:15.941Z,13050
2018-02-17T11:28:45.944Z,12283
2018-02-17T11:29:16.012Z,12840
2018-02-17T11:29:46.094Z,13400
2018-02-17T11:30:16.025Z,13560
2018-02-17T11:30:46.128Z,13287
2018-02-17T11:31:16.183Z,13283
2018-02-17T11:31:46.110Z,13410
2018-02-17T11:32:16.134Z,13297
2018-02-17T11:32:46.191Z,13370
2018-02-17T11:33:16.469Z,12830
2018-02-17T11:33:46.294Z,12607
2018-02-17T11:34:16.276Z,12417
2018-02-17T11:34:46.361Z,12190
2018-02-17T11:35:16.377Z,12313
2018-02-17T11:35:46.428Z,12360
2018-02-17T11:36:16.490Z,12290
2018-02-17T11:36:46.490Z,12073
2018-02-17T11:37:16.491Z,12167
2018-02-17T11:37:46.543Z,12447
2018-02-17T11:38:16.507Z,12243
2018-02-17T11:38:46.548Z,12350
2018-02-17T11:39:16.586Z,12520
2018-02-17T11:39:46.593Z,12897
2018-02-17T11:40:16.630Z,13293
2018-02-17T11:40:46.669Z,13553
2018-02-17T11:41:16.773Z,13827
2018-02-17T11:41:46.717Z,14087
2018-02-17T11:42:16.744Z,14270
2018-02-17T11:42:46.805Z,14693
2018-02-17T11:43:16.801Z,14997
2018-02-17T11:43:46.840Z,14880
2018-02-17T11:44:16.898Z,14350
2018-02-17T11:44:46.934Z,14560
2018-02-17T11:45:16.937Z,15070
2018-02-17T11:45:46.974Z,15183
2018-02-17T11:46:17.023Z,14110
2018-02-17T11:46:47.085Z,14783
2018-02-17T11:47:17.060Z,14630
2018-02-17T11:47:47.094Z,14530
2018-02-17T11:48:17.123Z,13970
2018-02-17T11:48:47.153Z,14217
2018-02-17T11:49:17.212Z,13867
2018-02-17T11:49:47.257Z,14033
2018-02-17T11:50:17.286Z,14887
2018-02-17T11:50:47.262Z,15243
2018-02-17T11:51:17.364Z,15433
2018-02-17T11:51:47.392Z,15607
2018-02-17T11:52:17.430Z,15507
2018-02-17T11:52:47.424Z,15517
2018-02-17T11:53:17.431Z,15260
2018-02-17T11:53:47.517Z,14263
2018-02-17T11:54:17.528Z,14000
2018-02-17T11:54:47.544Z,14237
2018-02-17T11:55:17.540Z,14010
2018-02-17T11:55:47.697Z,13403
2018-02-17T11:56:17.638Z,12960
2018-02-17T11:56:47.707Z,12983
2018-02-17T11:57:17.682Z,13283
2018-02-17T11:57:47.711Z,12937
2018-02-17T11:58:17.723Z,12357
2018-02-17T11:58:47.796Z,12837
2018-02-17T11:59:17.810Z,12727
2018-02-17T11:59:47.832Z,12883
2018-02-17T12:00:17.865Z,12683
2018-02-17T12:00:47.908Z,12360
2018-02-17T12:01:17.914Z,12343
2018-02-17T12:01:47.949Z,12563
2018-02-17T12:02:17.990Z,12790
2018-02-17T12:02:48.009Z,12653
2018-02-17T12:03:18.092Z,12583
2018-02-17T12:03:48.141Z,12077
2018-02-17T12:04:18.106Z,11923
2018-02-17T12:04:48.148Z,11997
2018-02-17T12:05:18.184Z,12207
2018-02-17T12:06:18.253Z,12233
2018-02-17T12:06:48.248Z,12560
2018-02-17T12:07:18.305Z,12310
2018-02-17T12:07:48.355Z,12687
2018-02-17T12:08:18.370Z,11770
2018-02-17T12:08:48.443Z,12430
2018-02-17T12:09:18.451Z,12773
2018-02-17T12:09:48.474Z,12707
2018-02-17T12:10:18.479Z,12970
2018-02-17T12:10:48.555Z,11880
2018-02-17T12:11:18.623Z,11503
2018-02-17T12:11:48.634Z,11177
2018-02-17T12:12:18.629Z,11190
2018-02-17T12:12:48.704Z,10853
2018-02-17T12:13:18.674Z,10203
2018-02-17T12:13:48.719Z,10053
2018-02-17T12:14:18.775Z,9653
2018-02-17T12:14:48.804Z,9387
2018-02-17T12:15:18.816Z,9463
2018-02-17T12:15:48.871Z,9490
2018-02-17T12:16:18.913Z,9303
2018-02-17T12:16:48.860Z,9477
2018-02-17T12:17:18.911Z,9840
2018-02-17T12:17:48.990Z,10093
2018-02-17T12:18:19.000Z,10030
2018-02-17T12:19:19.096Z,10140
2018-02-17T12:19:49.066Z,10037
2018-02-17T12:20:19.131Z,9870
2018-02-17T12:20:49.168Z,9943
2018-02-17T12:21:19.167Z,10270
2018-02-17T12:21:49.218Z,10347
2018-02-17T12:22:19.262Z,10203
2018-02-17T12:22:49.283Z,10033
2018-02-17T12:23:19.324Z,10020
2018-02-17T12:23:49.378Z,9900
2018-02-17T12:24:19.354Z,9907
2018-02-17T12:24:49.391Z,9637
2018-02-17T12:25:19.407Z,9660
2018-02-17T12:25:49.428Z,9393
2018-02-17T12:26:19.494Z,9437
2018-02-17T12:26:49.513Z,9590
2018-02-17T12:27:19.520Z,9557
2018-02-17T12:27:49.595Z,9690
2018-02-17T12:28:19.579Z,9693
2018-02-17T12:28:49.647Z,9583
2018-02-17T12:29:19.634Z,9497
2018-02-17T12:29:49.679Z,9470
2018-02-17T12:30:19.721Z,9443
2018-02-17T12:30:49.732Z,9570
2018-02-17T12:31:19.765Z,9587
2018-02-17T12:31:49.831Z,9703
2018-02-17T12:32:19.839Z,9660
2018-02-17T12:32:49.846Z,9723
2018-02-17T12:33:19.880Z,9747
2018-02-17T12:33:50.444Z,9777
2018-02-17T12:34:19.966Z,9720
2018-02-17T12:34:49.982Z,9763
2018-02-17T12:35:20.575Z,9847
2018-02-17T12:35:50.053Z,9800
2018-02-17T12:36:20.134Z,9833
2018-02-17T12:36:50.168Z,9820
2018-02-17T12:37:20.177Z,9913
2018-02-17T12:37:50.169Z,10067
2018-02-17T12:38:20.259Z,10060
2018-02-17T12:38:50.282Z,9950
2018-02-17T12:39:20.287Z,9707
2018-02-17T12:39:50.321Z,9460
2018-02-17T12:40:20.363Z,9443
2018-02-17T12:40:50.342Z,9507
2018-02-17T12:41:20.435Z,9387
2018-02-17T12:41:50.476Z,9333
2018-02-17T12:42:20.458Z,9350
2018-02-17T12:42:50.492Z,9397
2018-02-17T12:43:20.537Z,9563
2018-02-17T12:43:50.586Z,9577
2018-02-17T12:44:20.557Z,9597
2018-02-17T12:44:50.635Z,9667
2018-02-17T12:45:20.709Z,9533
2018-02-17T12:45:50.677Z,9403
2018-02-17T12:46:20.681Z,9283
2018-02-17T12:46:50.778Z,8833
2018-02-17T12:47:20.746Z,8850
2018-02-17T12:47:50.772Z,8933
2018-02-17T12:48:20.803Z,8987
2018-02-17T12:48:50.874Z,9023
2018-02-17T12:49:20.874Z,9140
2018-02-17T12:49:50.955Z,9297
2018-02-17T12:50:20.950Z,9343
2018-02-17T12:50:50.968Z,9267
2018-02-17T12:51:20.990Z,9370
2018-02-17T12:51:51.072Z,9253
2018-02-17T12:52:21.077Z,8900
2018-02-17T12:52:51.080Z,8763
2018-02-17T12:53:21.160Z,8697
2018-02-17T12:53:51.159Z,8647
2018-02-17T12:54:21.208Z,8840
2018-02-17T12:54:51.258Z,9057